sensor_id;sensor_type;location;lat;lon;timestamp;pressure;altitude;pressure_sealevel;temperature
8937;BMP180;4503;47.810;13.072;2022-08-21T00:01:16;96698.00;;;21.90
8937;BMP180;4503;47.810;13.072;2022-08-21T00:03:42;96691.00;;;22.00
8937;BMP180;4503;47.810;13.072;2022-08-21T00:06:09;96696.00;;;22.00
8937;BMP180;4503;47.810;13.072;2022-08-21T00:08:35;96694.00;;;22.10
8937;BMP180;4503;47.810;13.072;2022-08-21T00:11:02;96694.00;;;22.10
8937;BMP180;4503;47.810;13.072;2022-08-21T00:13:28;96691.00;;;22.10
8937;BMP180;4503;47.810;13.072;2022-08-21T00:15:54;96689.00;;;22.20
8937;BMP180;4503;47.810;13.072;2022-08-21T00:18:20;96685.00;;;22.20
8937;BMP180;4503;47.810;13.072;2022-08-21T00:20:47;96677.00;;;22.20
8937;BMP180;4503;47.810;13.072;2022-08-21T00:23:14;96684.00;;;22.20
8937;BMP180;4503;47.810;13.072;2022-08-21T00:25:42;96685.00;;;22.10
8937;BMP180;4503;47.810;13.072;2022-08-21T00:28:09;96680.00;;;22.10
8937;BMP180;4503;47.810;13.072;2022-08-21T00:30:35;96680.00;;;22.10
8937;BMP180;4503;47.810;13.072;2022-08-21T00:33:02;96687.00;;;22.10
8937;BMP180;4503;47.810;13.072;2022-08-21T00:35:35;96682.00;;;22.10
8937;BMP180;4503;47.810;13.072;2022-08-21T00:38:04;96681.00;;;22.10
8937;BMP180;4503;47.810;13.072;2022-08-21T00:40:48;96668.00;;;22.10
8937;BMP180;4503;47.810;13.072;2022-08-21T00:43:21;96663.00;;;22.00
8937;BMP180;4503;47.810;13.072;2022-08-21T00:45:49;96663.00;;;22.00
8937;BMP180;4503;47.810;13.072;2022-08-21T00:48:15;96668.00;;;21.90
8937;BMP180;4503;47.810;13.072;2022-08-21T00:50:53;96646.00;;;21.90
8937;BMP180;4503;47.810;13.072;2022-08-21T00:53:21;96650.00;;;21.80
8937;BMP180;4503;47.810;13.072;2022-08-21T00:55:47;96639.00;;;21.70
8937;BMP180;4503;47.810;13.072;2022-08-21T00:58:14;96643.00;;;21.60
8937;BMP180;4503;47.810;13.072;2022-08-21T01:00:43;96630.00;;;21.50
8937;BMP180;4503;47.810;13.072;2022-08-21T01:03:14;96625.00;;;21.50
8937;BMP180;4503;47.810;13.072;2022-08-21T01:05:42;96625.00;;;21.40
8937;BMP180;4503;47.810;13.072;2022-08-21T01:08:10;96631.00;;;21.40
8937;BMP180;4503;47.810;13.072;2022-08-21T01:10:36;96623.00;;;21.30
8937;BMP180;4503;47.810;13.072;2022-08-21T01:13:04;96630.00;;;21.30
8937;BMP180;4503;47.810;13.072;2022-08-21T01:15:39;96637.00;;;21.20
8937;BMP180;4503;47.810;13.072;2022-08-21T01:18:09;96637.00;;;21.20
8937;BMP180;4503;47.810;13.072;2022-08-21T01:20:40;96624.00;;;21.20
8937;BMP180;4503;47.810;13.072;2022-08-21T01:23:07;96633.00;;;21.20
8937;BMP180;4503;47.810;13.072;2022-08-21T01:25:34;96622.00;;;21.30
8937;BMP180;4503;47.810;13.072;2022-08-21T01:28:13;96627.00;;;21.30
8937;BMP180;4503;47.810;13.072;2022-08-21T01:30:42;96636.00;;;21.40
8937;BMP180;4503;47.810;13.072;2022-08-21T01:33:09;96639.00;;;21.50
8937;BMP180;4503;47.810;13.072;2022-08-21T01:35:35;96625.00;;;21.50
8937;BMP180;4503;47.810;13.072;2022-08-21T01:38:01;96618.00;;;21.50
8937;BMP180;4503;47.810;13.072;2022-08-21T01:40:27;96619.00;;;21.50
8937;BMP180;4503;47.810;13.072;2022-08-21T01:42:53;96621.00;;;21.50
8937;BMP180;4503;47.810;13.072;2022-08-21T01:45:19;96628.00;;;21.50
8937;BMP180;4503;47.810;13.072;2022-08-21T01:47:45;96622.00;;;21.60
8937;BMP180;4503;47.810;13.072;2022-08-21T01:50:15;96617.00;;;21.60
8937;BMP180;4503;47.810;13.072;2022-08-21T01:52:42;96621.00;;;21.70
8937;BMP180;4503;47.810;13.072;2022-08-21T01:55:10;96618.00;;;21.70
8937;BMP180;4503;47.810;13.072;2022-08-21T01:57:36;96627.00;;;21.70
8937;BMP180;4503;47.810;13.072;2022-08-21T02:00:08;96636.00;;;21.70
8937;BMP180;4503;47.810;13.072;2022-08-21T02:02:36;96617.00;;;21.70
8937;BMP180;4503;47.810;13.072;2022-08-21T02:05:04;96618.00;;;21.70
8937;BMP180;4503;47.810;13.072;2022-08-21T02:07:50;96612.00;;;21.70
8937;BMP180;4503;47.810;13.072;2022-08-21T02:10:24;96614.00;;;21.70
8937;BMP180;4503;47.810;13.072;2022-08-21T02:12:52;96607.00;;;21.70
8937;BMP180;4503;47.810;13.072;2022-08-21T02:15:19;96620.00;;;21.70
8937;BMP180;4503;47.810;13.072;2022-08-21T02:17:50;96638.00;;;21.70
8937;BMP180;4503;47.810;13.072;2022-08-21T02:20:31;96625.00;;;21.60
8937;BMP180;4503;47.810;13.072;2022-08-21T02:22:58;96621.00;;;21.60
8937;BMP180;4503;47.810;13.072;2022-08-21T02:25:27;96617.00;;;21.60
8937;BMP180;4503;47.810;13.072;2022-08-21T02:27:54;96615.00;;;21.60
8937;BMP180;4503;47.810;13.072;2022-08-21T02:30:31;96598.00;;;21.60
8937;BMP180;4503;47.810;13.072;2022-08-21T02:32:57;96617.00;;;21.60
8937;BMP180;4503;47.810;13.072;2022-08-21T02:35:23;96608.00;;;21.60
8937;BMP180;4503;47.810;13.072;2022-08-21T02:38:03;96616.00;;;21.60
8937;BMP180;4503;47.810;13.072;2022-08-21T02:40:36;96627.00;;;21.60
8937;BMP180;4503;47.810;13.072;2022-08-21T02:43:05;96620.00;;;21.70
8937;BMP180;4503;47.810;13.072;2022-08-21T02:45:32;96622.00;;;21.70
8937;BMP180;4503;47.810;13.072;2022-08-21T02:48:06;96621.00;;;21.70
8937;BMP180;4503;47.810;13.072;2022-08-21T02:50:38;96617.00;;;21.80
8937;BMP180;4503;47.810;13.072;2022-08-21T02:53:06;96623.00;;;21.80
8937;BMP180;4503;47.810;13.072;2022-08-21T02:55:34;96625.00;;;21.80
8937;BMP180;4503;47.810;13.072;2022-08-21T02:58:04;96619.00;;;21.90
8937;BMP180;4503;47.810;13.072;2022-08-21T03:00:31;96625.00;;;21.90
8937;BMP180;4503;47.810;13.072;2022-08-21T03:02:59;96625.00;;;21.90
8937;BMP180;4503;47.810;13.072;2022-08-21T03:05:27;96625.00;;;21.90
8937;BMP180;4503;47.810;13.072;2022-08-21T03:07:54;96626.00;;;22.00
8937;BMP180;4503;47.810;13.072;2022-08-21T03:10:22;96613.00;;;22.00
8937;BMP180;4503;47.810;13.072;2022-08-21T03:12:48;96621.00;;;22.00
8937;BMP180;4503;47.810;13.072;2022-08-21T03:15:18;96616.00;;;22.00
8937;BMP180;4503;47.810;13.072;2022-08-21T03:17:46;96628.00;;;22.00
8937;BMP180;4503;47.810;13.072;2022-08-21T03:20:16;96626.00;;;22.00
8937;BMP180;4503;47.810;13.072;2022-08-21T03:22:42;96628.00;;;22.00
8937;BMP180;4503;47.810;13.072;2022-08-21T03:25:09;96627.00;;;22.00
8937;BMP180;4503;47.810;13.072;2022-08-21T03:27:36;96625.00;;;22.10
8937;BMP180;4503;47.810;13.072;2022-08-21T03:30:06;96632.00;;;22.10
8937;BMP180;4503;47.810;13.072;2022-08-21T03:32:32;96633.00;;;22.10
8937;BMP180;4503;47.810;13.072;2022-08-21T03:34:59;96634.00;;;22.10
8937;BMP180;4503;47.810;13.072;2022-08-21T03:37:25;96633.00;;;22.10
8937;BMP180;4503;47.810;13.072;2022-08-21T03:39:52;96635.00;;;22.10
8937;BMP180;4503;47.810;13.072;2022-08-21T03:42:36;96639.00;;;22.10
8937;BMP180;4503;47.810;13.072;2022-08-21T03:45:04;96639.00;;;22.10
8937;BMP180;4503;47.810;13.072;2022-08-21T03:47:30;96645.00;;;22.10
8937;BMP180;4503;47.810;13.072;2022-08-21T03:49:56;96647.00;;;22.10
8937;BMP180;4503;47.810;13.072;2022-08-21T03:52:22;96641.00;;;22.10
8937;BMP180;4503;47.810;13.072;2022-08-21T03:54:49;96643.00;;;22.20
8937;BMP180;4503;47.810;13.072;2022-08-21T03:57:16;96642.00;;;22.20
8937;BMP180;4503;47.810;13.072;2022-08-21T03:59:42;96646.00;;;22.20
8937;BMP180;4503;47.810;13.072;2022-08-21T04:02:10;96644.00;;;22.20
8937;BMP180;4503;47.810;13.072;2022-08-21T04:04:36;96652.00;;;22.30
8937;BMP180;4503;47.810;13.072;2022-08-21T04:07:03;96658.00;;;22.30
8937;BMP180;4503;47.810;13.072;2022-08-21T04:09:29;96661.00;;;22.30
8937;BMP180;4503;47.810;13.072;2022-08-21T04:11:56;96658.00;;;22.30
8937;BMP180;4503;47.810;13.072;2022-08-21T04:14:22;96652.00;;;22.30
8937;BMP180;4503;47.810;13.072;2022-08-21T04:16:48;96669.00;;;22.30
8937;BMP180;4503;47.810;13.072;2022-08-21T04:19:14;96672.00;;;22.30
8937;BMP180;4503;47.810;13.072;2022-08-21T04:21:41;96670.00;;;22.30
8937;BMP180;4503;47.810;13.072;2022-08-21T04:24:09;96674.00;;;22.30
8937;BMP180;4503;47.810;13.072;2022-08-21T04:26:37;96672.00;;;22.30
8937;BMP180;4503;47.810;13.072;2022-08-21T04:29:04;96684.00;;;22.30
8937;BMP180;4503;47.810;13.072;2022-08-21T04:31:34;96680.00;;;22.30
8937;BMP180;4503;47.810;13.072;2022-08-21T04:34:00;96682.00;;;22.30
8937;BMP180;4503;47.810;13.072;2022-08-21T04:36:26;96690.00;;;22.20
8937;BMP180;4503;47.810;13.072;2022-08-21T04:38:52;96694.00;;;22.20
8937;BMP180;4503;47.810;13.072;2022-08-21T04:41:18;96697.00;;;22.30
8937;BMP180;4503;47.810;13.072;2022-08-21T04:43:44;96697.00;;;22.30
8937;BMP180;4503;47.810;13.072;2022-08-21T04:46:10;96694.00;;;22.30
8937;BMP180;4503;47.810;13.072;2022-08-21T04:48:36;96695.00;;;22.30
8937;BMP180;4503;47.810;13.072;2022-08-21T04:53:45;96702.00;;;22.30
8937;BMP180;4503;47.810;13.072;2022-08-21T04:56:28;96700.00;;;22.30
8937;BMP180;4503;47.810;13.072;2022-08-21T04:59:01;96700.00;;;22.20
8937;BMP180;4503;47.810;13.072;2022-08-21T05:01:30;96692.00;;;22.30
8937;BMP180;4503;47.810;13.072;2022-08-21T05:04:00;96702.00;;;22.30
8937;BMP180;4503;47.810;13.072;2022-08-21T05:06:31;96713.00;;;22.30
8937;BMP180;4503;47.810;13.072;2022-08-21T05:08:58;96716.00;;;22.30
8937;BMP180;4503;47.810;13.072;2022-08-21T05:11:25;96705.00;;;22.30
8937;BMP180;4503;47.810;13.072;2022-08-21T05:13:51;96708.00;;;22.30
8937;BMP180;4503;47.810;13.072;2022-08-21T05:16:17;96711.00;;;22.30
8937;BMP180;4503;47.810;13.072;2022-08-21T05:18:43;96712.00;;;22.30
8937;BMP180;4503;47.810;13.072;2022-08-21T05:21:09;96711.00;;;22.30
8937;BMP180;4503;47.810;13.072;2022-08-21T05:23:36;96721.00;;;22.30
8937;BMP180;4503;47.810;13.072;2022-08-21T05:26:02;96715.00;;;22.30
8937;BMP180;4503;47.810;13.072;2022-08-21T05:28:31;96716.00;;;22.30
8937;BMP180;4503;47.810;13.072;2022-08-21T05:30:57;96718.00;;;22.30
8937;BMP180;4503;47.810;13.072;2022-08-21T05:33:23;96721.00;;;22.30
8937;BMP180;4503;47.810;13.072;2022-08-21T05:35:52;96717.00;;;22.30
8937;BMP180;4503;47.810;13.072;2022-08-21T05:38:19;96721.00;;;22.30
8937;BMP180;4503;47.810;13.072;2022-08-21T05:40:46;96722.00;;;22.30
8937;BMP180;4503;47.810;13.072;2022-08-21T05:43:12;96715.00;;;22.30
8937;BMP180;4503;47.810;13.072;2022-08-21T05:45:38;96729.00;;;22.30
8937;BMP180;4503;47.810;13.072;2022-08-21T05:48:17;96740.00;;;22.30
8937;BMP180;4503;47.810;13.072;2022-08-21T05:50:46;96731.00;;;22.20
8937;BMP180;4503;47.810;13.072;2022-08-21T05:53:15;96728.00;;;22.20
8937;BMP180;4503;47.810;13.072;2022-08-21T05:55:42;96727.00;;;22.30
8937;BMP180;4503;47.810;13.072;2022-08-21T05:58:08;96729.00;;;22.30
8937;BMP180;4503;47.810;13.072;2022-08-21T06:00:34;96731.00;;;22.30
8937;BMP180;4503;47.810;13.072;2022-08-21T06:03:00;96734.00;;;22.30
8937;BMP180;4503;47.810;13.072;2022-08-21T06:05:26;96725.00;;;22.30
8937;BMP180;4503;47.810;13.072;2022-08-21T06:07:52;96730.00;;;22.30
8937;BMP180;4503;47.810;13.072;2022-08-21T06:10:19;96734.00;;;22.40
8937;BMP180;4503;47.810;13.072;2022-08-21T06:12:44;96725.00;;;22.40
8937;BMP180;4503;47.810;13.072;2022-08-21T06:15:11;96722.00;;;22.40
8937;BMP180;4503;47.810;13.072;2022-08-21T06:17:37;96725.00;;;22.40
8937;BMP180;4503;47.810;13.072;2022-08-21T06:20:04;96721.00;;;22.30
8937;BMP180;4503;47.810;13.072;2022-08-21T06:22:30;96726.00;;;22.40
8937;BMP180;4503;47.810;13.072;2022-08-21T06:24:56;96726.00;;;22.30
8937;BMP180;4503;47.810;13.072;2022-08-21T06:27:22;96730.00;;;22.30
8937;BMP180;4503;47.810;13.072;2022-08-21T06:29:48;96727.00;;;22.30
8937;BMP180;4503;47.810;13.072;2022-08-21T06:32:14;96732.00;;;22.40
8937;BMP180;4503;47.810;13.072;2022-08-21T06:34:41;96729.00;;;22.40
8937;BMP180;4503;47.810;13.072;2022-08-21T06:37:08;96723.00;;;22.40
8937;BMP180;4503;47.810;13.072;2022-08-21T06:39:35;96728.00;;;22.40
8937;BMP180;4503;47.810;13.072;2022-08-21T06:42:01;96728.00;;;22.40
8937;BMP180;4503;47.810;13.072;2022-08-21T06:44:28;96728.00;;;22.40
8937;BMP180;4503;47.810;13.072;2022-08-21T06:46:54;96719.00;;;22.40
8937;BMP180;4503;47.810;13.072;2022-08-21T06:49:20;96723.00;;;22.40
8937;BMP180;4503;47.810;13.072;2022-08-21T06:51:46;96724.00;;;22.40
8937;BMP180;4503;47.810;13.072;2022-08-21T06:54:12;96727.00;;;22.40
8937;BMP180;4503;47.810;13.072;2022-08-21T06:56:37;96722.00;;;22.30
8937;BMP180;4503;47.810;13.072;2022-08-21T06:59:05;96720.00;;;22.40
8937;BMP180;4503;47.810;13.072;2022-08-21T07:01:31;96721.00;;;22.40
8937;BMP180;4503;47.810;13.072;2022-08-21T07:03:57;96720.00;;;22.50
8937;BMP180;4503;47.810;13.072;2022-08-21T07:06:24;96726.00;;;22.50
8937;BMP180;4503;47.810;13.072;2022-08-21T07:08:50;96716.00;;;22.60
8937;BMP180;4503;47.810;13.072;2022-08-21T07:11:23;96715.00;;;22.60
8937;BMP180;4503;47.810;13.072;2022-08-21T07:13:51;96727.00;;;22.60
8937;BMP180;4503;47.810;13.072;2022-08-21T07:16:22;96716.00;;;22.60
8937;BMP180;4503;47.810;13.072;2022-08-21T07:18:48;96717.00;;;22.60
8937;BMP180;4503;47.810;13.072;2022-08-21T07:21:15;96719.00;;;22.70
8937;BMP180;4503;47.810;13.072;2022-08-21T07:23:51;96706.00;;;22.80
8937;BMP180;4503;47.810;13.072;2022-08-21T07:26:21;96712.00;;;22.80
8937;BMP180;4503;47.810;13.072;2022-08-21T07:28:49;96715.00;;;23.00
8937;BMP180;4503;47.810;13.072;2022-08-21T07:31:19;96717.00;;;23.10
8937;BMP180;4503;47.810;13.072;2022-08-21T07:33:46;96715.00;;;23.20
8937;BMP180;4503;47.810;13.072;2022-08-21T07:36:13;96709.00;;;23.30
8937;BMP180;4503;47.810;13.072;2022-08-21T07:38:40;96709.00;;;23.30
8937;BMP180;4503;47.810;13.072;2022-08-21T07:41:14;96711.00;;;23.40
8937;BMP180;4503;47.810;13.072;2022-08-21T07:43:42;96704.00;;;23.40
8937;BMP180;4503;47.810;13.072;2022-08-21T07:46:08;96708.00;;;23.50
8937;BMP180;4503;47.810;13.072;2022-08-21T07:48:34;96707.00;;;23.60
8937;BMP180;4503;47.810;13.072;2022-08-21T07:51:07;96706.00;;;23.60
8937;BMP180;4503;47.810;13.072;2022-08-21T07:53:36;96705.00;;;23.70
8937;BMP180;4503;47.810;13.072;2022-08-21T07:56:03;96702.00;;;23.80
8937;BMP180;4503;47.810;13.072;2022-08-21T07:58:31;96701.00;;;23.90
8937;BMP180;4503;47.810;13.072;2022-08-21T08:00:57;96701.00;;;24.00
8937;BMP180;4503;47.810;13.072;2022-08-21T08:03:23;96692.00;;;24.00
8937;BMP180;4503;47.810;13.072;2022-08-21T08:05:50;96690.00;;;24.10
8937;BMP180;4503;47.810;13.072;2022-08-21T08:08:16;96693.00;;;24.10
8937;BMP180;4503;47.810;13.072;2022-08-21T08:10:44;96686.00;;;24.20
8937;BMP180;4503;47.810;13.072;2022-08-21T08:13:10;96684.00;;;24.30
8937;BMP180;4503;47.810;13.072;2022-08-21T08:15:37;96686.00;;;24.40
8937;BMP180;4503;47.810;13.072;2022-08-21T08:18:06;96685.00;;;24.50
8937;BMP180;4503;47.810;13.072;2022-08-21T08:20:33;96690.00;;;24.60
8937;BMP180;4503;47.810;13.072;2022-08-21T08:22:59;96683.00;;;24.80
8937;BMP180;4503;47.810;13.072;2022-08-21T08:25:27;96684.00;;;24.90
8937;BMP180;4503;47.810;13.072;2022-08-21T08:27:53;96691.00;;;25.00
8937;BMP180;4503;47.810;13.072;2022-08-21T08:30:20;96681.00;;;25.10
8937;BMP180;4503;47.810;13.072;2022-08-21T08:32:48;96680.00;;;25.20
8937;BMP180;4503;47.810;13.072;2022-08-21T08:35:16;96688.00;;;25.30
8937;BMP180;4503;47.810;13.072;2022-08-21T08:37:42;96676.00;;;25.40
8937;BMP180;4503;47.810;13.072;2022-08-21T08:40:25;96671.00;;;25.50
8937;BMP180;4503;47.810;13.072;2022-08-21T08:42:55;96682.00;;;25.60
8937;BMP180;4503;47.810;13.072;2022-08-21T08:45:22;96678.00;;;25.60
8937;BMP180;4503;47.810;13.072;2022-08-21T08:48:05;96668.00;;;25.70
8937;BMP180;4503;47.810;13.072;2022-08-21T08:50:49;96673.00;;;25.80
8937;BMP180;4503;47.810;13.072;2022-08-21T08:53:34;96674.00;;;25.90
8937;BMP180;4503;47.810;13.072;2022-08-21T08:56:04;96682.00;;;26.00
8937;BMP180;4503;47.810;13.072;2022-08-21T08:58:37;96687.00;;;26.10
8937;BMP180;4503;47.810;13.072;2022-08-21T09:01:16;96683.00;;;26.20
8937;BMP180;4503;47.810;13.072;2022-08-21T09:03:44;96676.00;;;26.20
8937;BMP180;4503;47.810;13.072;2022-08-21T09:09:28;96675.00;;;26.20
8937;BMP180;4503;47.810;13.072;2022-08-21T09:15:14;96664.00;;;26.10
8937;BMP180;4503;47.810;13.072;2022-08-21T09:27:18;96666.00;;;26.10
8937;BMP180;4503;47.810;13.072;2022-08-21T09:29:48;96663.00;;;26.10
8937;BMP180;4503;47.810;13.072;2022-08-21T09:32:31;96664.00;;;26.10
8937;BMP180;4503;47.810;13.072;2022-08-21T09:35:19;96664.00;;;26.10
8937;BMP180;4503;47.810;13.072;2022-08-21T09:40:40;96648.00;;;26.40
8937;BMP180;4503;47.810;13.072;2022-08-21T09:45:40;96642.00;;;26.70
8937;BMP180;4503;47.810;13.072;2022-08-21T09:48:23;96646.00;;;26.90
8937;BMP180;4503;47.810;13.072;2022-08-21T09:50:51;96643.00;;;27.00
8937;BMP180;4503;47.810;13.072;2022-08-21T09:53:29;96647.00;;;27.10
8937;BMP180;4503;47.810;13.072;2022-08-21T09:56:18;96650.00;;;27.30
8937;BMP180;4503;47.810;13.072;2022-08-21T09:59:15;96643.00;;;27.30
8937;BMP180;4503;47.810;13.072;2022-08-21T10:01:46;96650.00;;;27.30
8937;BMP180;4503;47.810;13.072;2022-08-21T10:04:13;96644.00;;;27.40
8937;BMP180;4503;47.810;13.072;2022-08-21T10:06:40;96648.00;;;27.50
8937;BMP180;4503;47.810;13.072;2022-08-21T10:09:16;96640.00;;;27.60
8937;BMP180;4503;47.810;13.072;2022-08-21T10:11:52;96648.00;;;27.70
8937;BMP180;4503;47.810;13.072;2022-08-21T10:20:20;96650.00;;;27.80
8937;BMP180;4503;47.810;13.072;2022-08-21T10:31:54;96647.00;;;27.80
8937;BMP180;4503;47.810;13.072;2022-08-21T10:48:52;96633.00;;;28.10
8937;BMP180;4503;47.810;13.072;2022-08-21T10:51:38;96631.00;;;28.10
8937;BMP180;4503;47.810;13.072;2022-08-21T10:54:44;96630.00;;;28.00
8937;BMP180;4503;47.810;13.072;2022-08-21T11:00:17;96632.00;;;28.00
8937;BMP180;4503;47.810;13.072;2022-08-21T11:08:19;96627.00;;;28.30
8937;BMP180;4503;47.810;13.072;2022-08-21T11:10:55;96625.00;;;28.30
8937;BMP180;4503;47.810;13.072;2022-08-21T11:13:48;96630.00;;;28.20
8937;BMP180;4503;47.810;13.072;2022-08-21T11:16:42;96633.00;;;28.20
8937;BMP180;4503;47.810;13.072;2022-08-21T11:22:44;96622.00;;;28.10
8937;BMP180;4503;47.810;13.072;2022-08-21T11:25:00;96621.00;;;28.20
8937;BMP180;4503;47.810;13.072;2022-08-21T11:28:06;96614.00;;;28.30
8937;BMP180;4503;47.810;13.072;2022-08-21T11:31:15;96610.00;;;28.40
8937;BMP180;4503;47.810;13.072;2022-08-21T11:36:38;96602.00;;;28.80
8937;BMP180;4503;47.810;13.072;2022-08-21T11:39:25;96604.00;;;29.00
8937;BMP180;4503;47.810;13.072;2022-08-21T11:45:27;96607.00;;;29.70
8937;BMP180;4503;47.810;13.072;2022-08-21T11:50:40;96595.00;;;30.40
8937;BMP180;4503;47.810;13.072;2022-08-21T11:53:16;96592.00;;;31.00
8937;BMP180;4503;47.810;13.072;2022-08-21T11:56:00;96589.00;;;31.60
8937;BMP180;4503;47.810;13.072;2022-08-21T11:58:41;96578.00;;;32.30
8937;BMP180;4503;47.810;13.072;2022-08-21T12:01:17;96577.00;;;32.90
8937;BMP180;4503;47.810;13.072;2022-08-21T12:06:40;96591.00;;;33.00
8937;BMP180;4503;47.810;13.072;2022-08-21T12:09:33;96592.00;;;32.70
8937;BMP180;4503;47.810;13.072;2022-08-21T12:12:26;96579.00;;;32.50
8937;BMP180;4503;47.810;13.072;2022-08-21T12:23:45;96581.00;;;32.50
8937;BMP180;4503;47.810;13.072;2022-08-21T12:26:29;96575.00;;;32.70
8937;BMP180;4503;47.810;13.072;2022-08-21T12:29:21;96560.00;;;33.00
8937;BMP180;4503;47.810;13.072;2022-08-21T12:34:49;96553.00;;;33.80
8937;BMP180;4503;47.810;13.072;2022-08-21T12:37:34;96564.00;;;33.70
8937;BMP180;4503;47.810;13.072;2022-08-21T12:40:11;96562.00;;;33.40
8937;BMP180;4503;47.810;13.072;2022-08-21T12:53:59;96569.00;;;31.90
8937;BMP180;4503;47.810;13.072;2022-08-21T12:56:33;96566.00;;;31.60
8937;BMP180;4503;47.810;13.072;2022-08-21T12:59:11;96568.00;;;31.60
8937;BMP180;4503;47.810;13.072;2022-08-21T13:01:52;96564.00;;;31.70
8937;BMP180;4503;47.810;13.072;2022-08-21T13:04:37;96554.00;;;31.80
8937;BMP180;4503;47.810;13.072;2022-08-21T13:07:12;96570.00;;;31.80
8937;BMP180;4503;47.810;13.072;2022-08-21T13:09:52;96560.00;;;31.80
8937;BMP180;4503;47.810;13.072;2022-08-21T13:12:21;96556.00;;;31.90
8937;BMP180;4503;47.810;13.072;2022-08-21T13:14:50;96558.00;;;32.10
8937;BMP180;4503;47.810;13.072;2022-08-21T13:17:21;96552.00;;;32.20
8937;BMP180;4503;47.810;13.072;2022-08-21T13:20:07;96555.00;;;32.50
8937;BMP180;4503;47.810;13.072;2022-08-21T13:22:42;96550.00;;;32.40
8937;BMP180;4503;47.810;13.072;2022-08-21T13:25:15;96550.00;;;32.40
8937;BMP180;4503;47.810;13.072;2022-08-21T13:27:44;96548.00;;;32.40
8937;BMP180;4503;47.810;13.072;2022-08-21T13:30:21;96554.00;;;32.40
8937;BMP180;4503;47.810;13.072;2022-08-21T13:32:54;96546.00;;;32.20
8937;BMP180;4503;47.810;13.072;2022-08-21T13:38:34;96545.00;;;32.40
8937;BMP180;4503;47.810;13.072;2022-08-21T13:46:33;96531.00;;;32.50
8937;BMP180;4503;47.810;13.072;2022-08-21T13:49:02;96533.00;;;32.60
8937;BMP180;4503;47.810;13.072;2022-08-21T13:51:30;96538.00;;;32.80
8937;BMP180;4503;47.810;13.072;2022-08-21T13:53:57;96535.00;;;33.10
8937;BMP180;4503;47.810;13.072;2022-08-21T13:56:31;96535.00;;;33.50
8937;BMP180;4503;47.810;13.072;2022-08-21T13:59:00;96534.00;;;33.80
8937;BMP180;4503;47.810;13.072;2022-08-21T14:01:34;96532.00;;;33.70
8937;BMP180;4503;47.810;13.072;2022-08-21T14:04:18;96535.00;;;33.50
8937;BMP180;4503;47.810;13.072;2022-08-21T14:06:45;96539.00;;;33.20
8937;BMP180;4503;47.810;13.072;2022-08-21T14:09:35;96542.00;;;32.90
8937;BMP180;4503;47.810;13.072;2022-08-21T14:12:25;96539.00;;;32.60
8937;BMP180;4503;47.810;13.072;2022-08-21T14:14:55;96537.00;;;32.40
8937;BMP180;4503;47.810;13.072;2022-08-21T14:17:35;96535.00;;;32.20
8937;BMP180;4503;47.810;13.072;2022-08-21T14:20:12;96533.00;;;31.90
8937;BMP180;4503;47.810;13.072;2022-08-21T14:22:50;96529.00;;;31.70
8937;BMP180;4503;47.810;13.072;2022-08-21T14:28:02;96520.00;;;31.50
8937;BMP180;4503;47.810;13.072;2022-08-21T14:30:35;96519.00;;;31.50
8937;BMP180;4503;47.810;13.072;2022-08-21T14:33:04;96521.00;;;31.50
8937;BMP180;4503;47.810;13.072;2022-08-21T14:35:34;96524.00;;;31.60
8937;BMP180;4503;47.810;13.072;2022-08-21T14:38:00;96517.00;;;32.00
8937;BMP180;4503;47.810;13.072;2022-08-21T14:40:27;96519.00;;;32.50
8937;BMP180;4503;47.810;13.072;2022-08-21T14:42:54;96516.00;;;33.10
8937;BMP180;4503;47.810;13.072;2022-08-21T14:45:27;96513.00;;;33.80
8937;BMP180;4503;47.810;13.072;2022-08-21T14:47:55;96505.00;;;34.80
8937;BMP180;4503;47.810;13.072;2022-08-21T14:50:22;96504.00;;;35.80
8937;BMP180;4503;47.810;13.072;2022-08-21T14:52:48;96503.00;;;36.50
8937;BMP180;4503;47.810;13.072;2022-08-21T14:55:17;96505.00;;;37.40
8937;BMP180;4503;47.810;13.072;2022-08-21T14:57:50;96505.00;;;38.00
8937;BMP180;4503;47.810;13.072;2022-08-21T15:00:21;96510.00;;;38.30
8937;BMP180;4503;47.810;13.072;2022-08-21T15:02:51;96510.00;;;38.80
8937;BMP180;4503;47.810;13.072;2022-08-21T15:05:18;96509.00;;;39.30
8937;BMP180;4503;47.810;13.072;2022-08-21T15:07:44;96511.00;;;39.70
8937;BMP180;4503;47.810;13.072;2022-08-21T15:10:11;96507.00;;;39.90
8937;BMP180;4503;47.810;13.072;2022-08-21T15:12:38;96512.00;;;40.00
8937;BMP180;4503;47.810;13.072;2022-08-21T15:15:06;96513.00;;;39.50
8937;BMP180;4503;47.810;13.072;2022-08-21T15:17:33;96503.00;;;38.50
8937;BMP180;4503;47.810;13.072;2022-08-21T15:19:58;96501.00;;;37.60
8937;BMP180;4503;47.810;13.072;2022-08-21T15:22:24;96495.00;;;37.40
8937;BMP180;4503;47.810;13.072;2022-08-21T15:24:50;96496.00;;;38.00
8937;BMP180;4503;47.810;13.072;2022-08-21T15:27:18;96490.00;;;38.70
8937;BMP180;4503;47.810;13.072;2022-08-21T15:29:44;96496.00;;;39.00
8937;BMP180;4503;47.810;13.072;2022-08-21T15:32:24;96492.00;;;39.50
8937;BMP180;4503;47.810;13.072;2022-08-21T15:34:52;96493.00;;;40.10
8937;BMP180;4503;47.810;13.072;2022-08-21T15:37:19;96497.00;;;40.50
8937;BMP180;4503;47.810;13.072;2022-08-21T15:39:44;96497.00;;;40.70
8937;BMP180;4503;47.810;13.072;2022-08-21T15:42:12;96486.00;;;40.70
8937;BMP180;4503;47.810;13.072;2022-08-21T15:44:40;96489.00;;;40.60
8937;BMP180;4503;47.810;13.072;2022-08-21T15:47:14;96483.00;;;40.80
8937;BMP180;4503;47.810;13.072;2022-08-21T15:49:42;96483.00;;;41.20
8937;BMP180;4503;47.810;13.072;2022-08-21T15:52:12;96491.00;;;41.80
8937;BMP180;4503;47.810;13.072;2022-08-21T15:54:38;96494.00;;;42.20
8937;BMP180;4503;47.810;13.072;2022-08-21T15:57:05;96483.00;;;42.50
8937;BMP180;4503;47.810;13.072;2022-08-21T15:59:44;96478.00;;;42.50
8937;BMP180;4503;47.810;13.072;2022-08-21T16:05:00;96475.00;;;43.50
8937;BMP180;4503;47.810;13.072;2022-08-21T16:07:26;96471.00;;;43.60
8937;BMP180;4503;47.810;13.072;2022-08-21T16:09:51;96484.00;;;43.50
8937;BMP180;4503;47.810;13.072;2022-08-21T16:12:24;96474.00;;;43.60
8937;BMP180;4503;47.810;13.072;2022-08-21T16:14:52;96467.00;;;43.80
8937;BMP180;4503;47.810;13.072;2022-08-21T16:17:22;96473.00;;;44.00
8937;BMP180;4503;47.810;13.072;2022-08-21T16:19:50;96475.00;;;44.10
8937;BMP180;4503;47.810;13.072;2022-08-21T16:22:16;96464.00;;;43.80
8937;BMP180;4503;47.810;13.072;2022-08-21T16:24:42;96475.00;;;42.90
8937;BMP180;4503;47.810;13.072;2022-08-21T16:27:08;96477.00;;;41.80
8937;BMP180;4503;47.810;13.072;2022-08-21T16:29:36;96472.00;;;40.80
8937;BMP180;4503;47.810;13.072;2022-08-21T16:32:05;96478.00;;;40.40
8937;BMP180;4503;47.810;13.072;2022-08-21T16:34:31;96467.00;;;39.90